Station: Lady Elliot Island  

  Atmospheric Gas Attenuation - ITU Rec 676-11   ----------------- dB/100km -----------------
Date Time Temp RH % AH g/m3 Dew Point Wind Direction Speed kph Gust kph Barometer mB Rainfall Since 9am 24GHz 47GHz 76GHz 122GHz 134GHz 241GHz
02/09 19:00 20.5 78 13.88 16.5 9 20 1021.6 0 30.4 32.9 58.3 153.7 161.0 557.9
02/09 18:50 20.4 77 13.62 16.2 9 19 1021.4 0 29.9 32.5 57.2 150.8 157.4 545.5
02/09 18:40 20.3 78 13.72 16.3 11 19 1021.3 0 30.1 32.7 57.7 152.2 159.1 551.2
02/09 18:30 20.2 79 13.81 16.4 13 20 1021.3 0 30.3 32.9 58.2 153.4 160.6 556.4
02/09 18:20 20.2 80 13.99 16.6 11 20 1021.2 0 30.7 33.2 59.0 155.5 163.1 565.4
02/09 18:10 20.5 80 14.23 16.9 13 22 1021.1 0 31.2 33.5 59.8 157.7 166.0 575.3
02/09 18:00 20.4 79 13.97 16.6 13 19 1021 0 30.6 33.1 58.7 154.9 162.4 562.9
02/09 17:50 20.7 79 14.22 16.9 13 24 1020.9 0 31.1 33.4 59.6 157.2 165.4 573.2
02/09 17:40 20.8 77 13.94 16.6 11 19 1020.9 0 30.5 32.9 58.3 153.7 161.1 558.4
02/09 17:30 20.8 75 13.58 16.2 9 19 1020.9 0 29.8 32.3 56.7 149.5 156.0 540.5
02/09 17:20 20.9 74 13.48 16.1 11 17 1020.9 0 29.5 32.1 56.2 148.2 154.4 534.9
02/09 17:10 21.1 73 13.45 16.1 9 15 1020.9 0 29.5 31.9 55.9 147.5 153.5 532.0
02/09 17:00 21.2 74 13.71 16.4 11 17 1020.9 0 30.0 32.3 57.0 150.2 157.0 544.1
02/09 16:50 21.5 75 14.14 16.9 13 19 1021 0 30.9 33.0 58.6 154.6 162.5 563.3
02/09 16:40 21.7 73 13.92 16.6 11 17 1020.9 0 30.4 32.5 57.5 151.7 158.9 551.0
02/09 16:30 21.6 72 13.65 16.3 13 19 1020.9 0 29.9 32.1 56.4 148.8 155.3 538.4
02/09 16:20 21.9 73 14.09 16.8 11 17 1020.8 0 30.8 32.7 58.1 153.2 160.9 557.9
02/09 16:10 22.1 72 14.05 16.8 11 15 1020.7 0 30.7 32.6 57.8 152.4 159.9 554.4
02/09 16:00 22.3 72 14.22 17 11 15 1020.8 0 31.0 32.8 58.4 153.9 161.9 561.4
02/09 15:50 22.5 70 13.98 16.8 9 13 1020.8 0 30.5 32.3 57.2 150.8 158.1 548.2
02/09 15:40 22.6 69 13.86 16.6 9 13 1020.9 0 30.2 32.1 56.6 149.3 156.2 541.7
02/09 15:30 22.8 69 14.02 16.8 9 13 1020.9 0 30.6 32.3 57.1 150.7 158.1 548.1
02/09 15:20 22.8 72 14.63 17.5 9 11 1021 0 31.8 33.3 59.8 157.7 166.7 578.1
02/09 15:10 22.1 66 12.88 15.5 7 11 1021.1 0 28.2 30.6 52.8 139.2 143.7 497.9
02/09 15:00 22.7 64 12.93 15.5 7 9 1021.2 0 28.3 30.5 52.6 138.7 143.3 496.5
02/09 14:50 22.5 64 12.78 15.4 7 9 1021.2 0 28.0 30.3 52.2 137.4 141.6 490.7
02/09 14:40 23.3 60 12.54 15.1 6 11 1021.4 0 27.4 29.6 50.7 133.5 137.0 474.6
02/09 14:30 23.2 63 13.1 15.8 6 9 1021.4 0 28.6 30.6 53.0 139.7 144.7 501.4
02/09 14:20 22.8 62 12.6 15.1 7 11 1021.4 0 27.6 29.9 51.2 135.0 138.7 480.4
02/09 14:09 23.2 62 12.89 15.5 7 9 1021.4 0 28.1 30.3 52.2 137.4 141.8 491.5
02/09 14:00 23.1 63 13.02 15.7 9 13 1021.5 0 28.4 30.5 52.8 139.0 143.8 498.3
02/09 13:50 23.7 62 13.26 16 7 9 1021.6 0 28.9 30.7 53.3 140.6 145.9 505.8
02/09 13:40 23.8 63 13.55 16.3 9 13 1021.7 0 29.5 31.1 54.5 143.6 149.7 518.9
02/09 13:30 23.3 62 12.96 15.6 9 13 1021.8 0 28.3 30.3 52.4 138.1 142.6 494.3
02/09 13:20 23.3 61 12.75 15.4 11 15 1021.9 0 27.8 30.0 51.5 135.8 139.8 484.5
02/09 13:10 24.1 62 13.57 16.4 13 15 1022.1 0 29.5 31.1 54.4 143.4 149.4 518.0
02/09 13:00 24 65 14.14 17 13 17 1022.2 0 30.7 32.1 56.8 149.9 157.4 545.9
02/09 12:50 23.9 62 13.41 16.2 13 19 1022.4 0 29.2 30.9 53.9 142.0 147.7 511.9
02/09 12:40 23.6 64 13.61 16.4 15 20 1022.6 0 29.6 31.4 54.9 144.8 151.0 523.4
02/09 12:30 23.8 65 13.98 16.8 15 19 1022.7 0 30.4 31.9 56.3 148.6 155.7 539.8
02/09 12:20 24 60 13.05 15.8 13 17 1022.9 0 28.4 30.3 52.4 138.0 142.7 494.5
02/09 12:10 24.1 61 13.35 16.1 13 17 1023.2 0 29.0 30.8 53.5 141.1 146.6 508.1
02/09 12:00 23.9 62 13.41 16.2 15 17 1023.4 0 29.2 30.9 53.9 142.1 147.8 512.3
02/09 11:50 24.1 61 13.35 16.1 11 17 1023.6 0 29.0 30.8 53.5 141.1 146.6 508.2
02/09 11:40 24.1 62 13.57 16.4 11 15 1023.8 0 29.5 31.2 54.5 143.6 149.6 518.7
02/09 11:30 23.5 56 11.84 14.2 9 15 1023.9 0 25.9 28.5 47.9 126.0 127.7 442.2
02/09 11:20 24.2 57 12.54 15.1 9 13 1024.1 0 27.3 29.4 50.2 132.3 135.7 470.1
02/09 11:10 23.8 55 11.83 14.2 9 15 1024.3 0 25.9 28.4 47.7 125.4 127.1 440.2
02/09 11:00 23.7 58 12.41 14.9 9 13 1024.3 0 27.1 29.4 50.0 131.7 134.9 467.2
02/09 10:50 24.1 58 12.69 15.3 9 13 1024.4 0 27.6 29.7 50.9 134.1 137.9 477.8
02/09 10:40 23.6 58 12.33 14.9 9 11 1024.6 0 26.9 29.3 49.8 131.1 134.0 464.2
02/09 10:30 23.8 59 12.69 15.3 9 11 1024.6 0 27.7 29.8 51.1 134.6 138.4 479.7
02/09 10:20 23.8 58 12.48 15 7 9 1024.7 0 27.2 29.5 50.3 132.4 135.7 470.0
02/09 10:10 23.5 59 12.48 15 9 13 1024.8 0 27.2 29.6 50.5 132.9 136.2 471.8
02/09 10:00 23.7 60 12.83 15.5 11 11 1024.9 0 28.0 30.1 51.8 136.3 140.5 486.9
02/09 09:50 23.5 62 13.11 15.8 9 15 1024.9 0 28.6 30.6 53.0 139.7 144.6 501.3
02/09 09:40 23.3 60 12.54 15.1 9 11 1025 0 27.4 29.8 50.8 133.9 137.4 475.9
02/09 09:30 23.7 66 14.12 17 9 13 1025.1 0 30.7 32.3 57.1 150.6 158.1 548.2
02/09 09:20 23.7 64 13.69 16.5 9 13 1025.1 0 29.8 31.6 55.3 145.8 152.2 527.6
02/09 09:10 22.9 63 12.87 15.5 9 13 1025.2 0 28.1 30.5 52.5 138.2 142.5 493.9
02/09 09:00 23 62 12.74 15.3 9 13 1025.3 0 27.8 30.2 51.9 136.6 140.6 487.2
02/09 08:50 22.9 62 12.67 15.2 9 11 1025.2 0 27.7 30.1 51.6 136.0 139.8 484.5
02/09 08:40 22.9 64 13.08 15.7 9 11 1025.2 0 28.5 30.8 53.3 140.5 145.4 503.8
02/09 08:30 22.9 66 13.49 16.2 7 11 1025.3 0 29.4 31.5 55.0 145.1 151.0 523.4
02/09 08:20 22.2 67 13.15 15.8 9 13 1025.1 0 28.7 31.2 54.1 142.5 147.7 511.7
02/09 08:10 22.1 68 13.27 15.9 9 13 1025 0 29.0 31.4 54.7 144.1 149.5 518.1
02/09 08:00 22.2 70 13.74 16.5 9 13 1024.8 0 30.0 32.2 56.6 149.2 155.8 540.2
02/09 07:50 22 70 13.58 16.3 9 17 1024.7 0 29.7 32.0 56.0 147.7 154.0 533.7
02/09 07:40 21.8 71 13.62 16.3 9 13 1024.6 0 29.8 32.1 56.3 148.5 154.9 537.0
02/09 07:30 21.6 71 13.46 16.1 9 13 1024.6 0 29.4 31.9 55.8 147.1 153.1 530.5
02/09 07:20 21.4 73 13.68 16.4 9 13 1024.5 0 29.9 32.4 56.9 150.0 156.6 542.7
02/09 07:10 20.9 74 13.48 16.1 11 15 1024.4 0 29.5 32.2 56.4 148.6 154.8 536.3
02/09 07:00 20.6 76 13.6 16.2 11 15 1024.4 0 29.8 32.5 57.1 150.6 157.1 544.3
02/09 06:50 20.5 78 13.88 16.5 11 17 1024.3 0 30.4 33.0 58.4 154.0 161.3 559.0
02/09 06:40 19.9 79 13.57 16.2 11 17 1024.2 0 29.8 32.7 57.5 151.6 158.1 547.7
02/09 06:30 19.7 82 13.92 16.5 13 20 1024.1 0 30.6 33.4 59.2 156.1 163.6 566.8
02/09 06:20 19.6 83 14.01 16.6 11 17 1024 0 30.8 33.6 59.7 157.4 165.1 572.1
02/09 06:10 19.4 82 13.68 16.2 13 19 1023.9 0 30.1 33.1 58.3 153.8 160.7 556.7
02/09 06:00 19.4 83 13.85 16.4 13 20 1023.8 0 30.4 33.4 59.1 155.8 163.1 565.3
02/09 05:50 19.6 83 14.01 16.6 15 20 1023.7 0 30.8 33.6 59.7 157.3 165.0 571.9
02/09 05:40 19.7 80 13.58 16.2 11 19 1023.5 0 29.8 32.8 57.7 152.0 158.6 549.3
02/09 05:30 19.9 78 13.4 16 13 20 1023.5 0 29.4 32.4 56.7 149.5 155.6 538.9
02/09 05:20 20.1 76 13.21 15.7 15 22 1023.5 0 29.0 32.0 55.7 146.9 152.4 528.1
02/09 05:10 20.1 77 13.38 15.9 15 22 1023.4 0 29.4 32.3 56.5 148.9 154.8 536.5
02/09 05:00 20 75 12.96 15.4 17 20 1023.4 0 28.5 31.6 54.7 144.2 149.1 516.4
02/09 04:50 19.8 78 13.32 15.9 15 20 1023.3 0 29.3 32.3 56.4 148.7 154.6 535.5
02/09 04:40 19.9 79 13.57 16.2 15 20 1023.2 0 29.8 32.7 57.4 151.5 158.0 547.3
02/09 04:30 19.8 80 13.66 16.3 15 22 1023.2 0 30.0 32.9 57.9 152.7 159.5 552.5
02/09 04:20 19.7 81 13.75 16.3 15 20 1023.3 0 30.2 33.1 58.4 154.0 161.0 557.8
02/09 04:10 19.8 82 14 16.6 15 20 1023.4 0 30.7 33.5 59.4 156.8 164.4 569.8
02/09 04:00 19.9 81 13.92 16.5 15 20 1023.4 0 30.5 33.3 59.0 155.6 163.0 565.0
02/09 03:50 19.8 79 13.49 16.1 15 19 1023.5 0 29.6 32.6 57.2 150.8 157.0 544.1
02/09 03:40 19.7 78 13.24 15.8 15 19 1023.5 0 29.1 32.2 56.2 148.0 153.7 532.3
02/09 03:30 19.7 77 13.07 15.6 17 22 1023.5 0 28.8 31.9 55.4 146.1 151.2 523.8
02/09 03:20 20 78 13.48 16 15 20 1023.6 0 29.6 32.5 57.0 150.3 156.5 542.2
02/09 03:10 20 78 13.48 16 17 22 1023.7 0 29.6 32.5 57.0 150.3 156.5 542.3
02/09 03:00 19.8 77 13.15 15.7 17 22 1023.7 0 28.9 32.0 55.7 146.8 152.2 527.2
02/09 02:50 19.8 78 13.32 15.9 19 22 1023.8 0 29.3 32.3 56.5 148.8 154.6 535.7
02/09 02:40 19.7 77 13.07 15.6 20 28 1023.8 0 28.8 31.9 55.4 146.1 151.3 524.0
02/09 02:30 19.9 77 13.23 15.7 20 28 1023.9 0 29.1 32.1 56.0 147.6 153.2 530.6

Last Refresh: 02-Sep-2026 18:50:58

Bureau of Meteorology